createdAt,value
2019-03-19T00:02:09.865Z,69.35
2019-03-19T00:04:39.445Z,69.65
2019-03-19T00:07:08.901Z,69.98
2019-03-19T00:09:38.381Z,70.43
2019-03-19T00:12:07.822Z,70.59
2019-03-19T00:14:37.292Z,70.79
2019-03-19T00:17:06.765Z,70.67
2019-03-19T00:19:36.218Z,70.38
2019-03-19T00:22:05.758Z,70.78
2019-03-19T00:24:35.231Z,70.81
2019-03-19T00:27:05.374Z,70.15
2019-03-19T00:29:34.854Z,70.00
2019-03-19T00:32:04.305Z,69.92
2019-03-19T00:34:33.936Z,70.40
2019-03-19T00:37:03.561Z,71.05
2019-03-19T00:39:33.025Z,71.25
2019-03-19T00:42:02.212Z,71.13
2019-03-19T00:44:31.828Z,71.24
2019-03-19T00:47:01.321Z,71.34
2019-03-19T00:49:30.976Z,71.42
2019-03-19T00:52:00.597Z,71.65
2019-03-19T00:54:30.072Z,71.78
2019-03-19T00:56:59.649Z,71.21
2019-03-19T00:59:29.124Z,71.26
2019-03-19T01:01:58.582Z,71.90
2019-03-19T01:07:43.973Z,72.48
2019-03-19T01:10:17.340Z,72.60
2019-03-19T01:12:46.305Z,72.73
2019-03-19T01:15:15.942Z,72.42
2019-03-19T01:17:45.454Z,72.54
2019-03-19T01:20:16.675Z,72.97
2019-03-19T01:22:46.221Z,72.75
2019-03-19T01:25:16.420Z,73.08
2019-03-19T01:27:45.934Z,73.09
2019-03-19T01:30:16.860Z,73.38
2019-03-19T01:32:46.413Z,73.17
2019-03-19T01:35:17.636Z,72.93
2019-03-19T01:37:47.096Z,72.91
2019-03-19T01:40:16.964Z,73.11
2019-03-19T01:42:46.421Z,73.11
2019-03-19T01:45:16.304Z,72.95
2019-03-19T01:47:45.766Z,73.06
2019-03-19T01:50:16.160Z,73.03
2019-03-19T01:52:45.834Z,72.58
2019-03-19T01:55:16.107Z,72.96
2019-03-19T01:57:45.657Z,73.11
2019-03-19T02:00:16.659Z,72.92
2019-03-19T02:02:46.205Z,72.83
2019-03-19T02:05:36.524Z,72.75
2019-03-19T02:08:06.155Z,72.76
2019-03-19T02:10:35.662Z,73.12
2019-03-19T02:13:05.300Z,73.43
2019-03-19T02:15:34.888Z,73.36
2019-03-19T02:18:04.528Z,73.19
2019-03-19T02:20:34.132Z,73.56
2019-03-19T02:23:04.787Z,73.50
2019-03-19T02:25:34.296Z,74.11
2019-03-19T02:28:04.105Z,73.91
2019-03-19T02:30:33.557Z,73.85
2019-03-19T02:33:03.164Z,74.24
2019-03-19T02:35:32.623Z,74.64
2019-03-19T02:38:02.135Z,73.66
2019-03-19T02:40:31.708Z,73.48
2019-03-19T02:43:01.339Z,73.45
2019-03-19T02:45:30.821Z,73.84
2019-03-19T02:48:00.486Z,74.39
2019-03-19T02:50:30.099Z,74.61
2019-03-19T02:52:59.750Z,74.50
2019-03-19T02:58:26.669Z,74.80
2019-03-19T03:00:56.228Z,75.27
2019-03-19T03:03:25.716Z,75.20
2019-03-19T03:05:55.334Z,75.01
2019-03-19T03:08:24.810Z,74.83
2019-03-19T03:10:56.595Z,74.77
2019-03-19T03:13:25.845Z,74.60
2019-03-19T03:15:55.344Z,74.34
2019-03-19T03:18:24.854Z,74.78
2019-03-19T03:20:55.981Z,75.39
2019-03-19T03:23:25.256Z,75.62
2019-03-19T03:25:54.599Z,75.23
2019-03-19T03:28:24.163Z,75.11
2019-03-19T03:30:53.631Z,74.78
2019-03-19T03:33:23.028Z,75.23
2019-03-19T03:35:52.540Z,75.43
2019-03-19T03:38:22.120Z,76.28
2019-03-19T03:41:12.881Z,76.58
2019-03-19T03:43:42.473Z,76.92
2019-03-19T03:46:12.520Z,76.97
2019-03-19T03:48:42.246Z,76.88
2019-03-19T03:51:12.125Z,76.88
2019-03-19T03:53:41.692Z,76.91
2019-03-19T03:56:11.695Z,77.10
2019-03-19T03:58:41.502Z,77.10
2019-03-19T04:01:11.244Z,76.75
2019-03-19T04:03:40.836Z,77.29
2019-03-19T04:06:11.055Z,76.84
2019-03-19T04:08:40.560Z,76.63
2019-03-19T04:11:10.562Z,77.30
2019-03-19T04:13:40.167Z,77.31
2019-03-19T04:16:09.784Z,77.42
2019-03-19T04:18:39.204Z,77.22
2019-03-19T04:21:08.848Z,77.64
2019-03-19T04:23:38.402Z,77.24
2019-03-19T04:26:07.879Z,77.59
2019-03-19T04:28:37.359Z,77.39
2019-03-19T04:31:06.825Z,77.22
2019-03-19T04:33:36.372Z,77.59
2019-03-19T04:36:05.909Z,77.41
2019-03-19T04:38:35.396Z,77.68
2019-03-19T04:41:04.922Z,77.80
2019-03-19T04:43:34.547Z,77.80
2019-03-19T04:46:04.068Z,77.72
2019-03-19T04:48:33.625Z,77.98
2019-03-19T04:51:23.940Z,77.84
2019-03-19T04:53:53.508Z,77.80
2019-03-19T04:56:22.391Z,78.08
2019-03-19T04:58:52.009Z,78.07
2019-03-19T05:01:21.639Z,78.21
2019-03-19T05:03:51.355Z,77.79
2019-03-19T05:06:20.888Z,77.48
2019-03-19T05:08:50.321Z,77.07
2019-03-19T05:11:19.820Z,77.26
2019-03-19T05:13:49.296Z,77.69
2019-03-19T05:16:18.791Z,78.06
2019-03-19T05:18:48.294Z,78.74
2019-03-19T05:21:17.741Z,79.25
2019-03-19T05:23:47.252Z,79.40
2019-03-19T05:26:16.762Z,79.40
2019-03-19T05:28:46.319Z,79.30
2019-03-19T05:31:15.777Z,79.30
2019-03-19T05:33:45.388Z,79.45
2019-03-19T05:36:16.366Z,79.29
2019-03-19T05:38:45.869Z,79.38
2019-03-19T05:41:16.664Z,79.06
2019-03-19T05:43:46.327Z,78.98
2019-03-19T05:46:15.885Z,79.06
2019-03-19T05:48:45.446Z,79.08
2019-03-19T05:51:14.898Z,78.94
2019-03-19T05:53:44.497Z,78.81
2019-03-19T05:56:13.941Z,78.51
2019-03-19T05:58:43.603Z,77.65
2019-03-19T06:01:13.032Z,76.71
2019-03-19T06:03:42.588Z,75.66
2019-03-19T06:06:12.331Z,74.71
2019-03-19T06:08:41.898Z,73.57
2019-03-19T06:11:11.507Z,72.43
2019-03-19T06:13:41.127Z,69.02
2019-03-19T06:16:10.818Z,68.60
2019-03-19T06:18:40.373Z,66.56
2019-03-19T06:21:10.012Z,62.79
2019-03-19T06:23:39.576Z,57.65
2019-03-19T06:26:09.225Z,54.75
2019-03-19T06:28:38.727Z,53.00
2019-03-19T06:31:08.621Z,51.35
2019-03-19T06:33:38.067Z,50.53
2019-03-19T06:36:08.033Z,54.56
2019-03-19T06:38:37.578Z,50.41
2019-03-19T06:41:07.522Z,46.61
2019-03-19T06:43:36.973Z,46.61
2019-03-19T06:46:06.531Z,45.77
2019-03-19T06:48:35.994Z,44.31
2019-03-19T06:51:05.614Z,44.40
2019-03-19T06:53:35.207Z,44.01
2019-03-19T06:56:04.824Z,43.78
2019-03-19T06:58:34.382Z,43.23
2019-03-19T07:01:04.057Z,40.94
2019-03-19T07:03:33.461Z,40.10
2019-03-19T07:06:03.182Z,41.34
2019-03-19T07:08:32.745Z,42.60
2019-03-19T07:11:02.218Z,42.25
2019-03-19T07:13:31.805Z,42.02
2019-03-19T07:16:41.330Z,41.21
2019-03-19T07:19:11.144Z,41.47
2019-03-19T07:21:40.838Z,38.97
2019-03-19T07:24:10.471Z,39.33
2019-03-19T07:26:40.123Z,38.76
2019-03-19T07:32:18.725Z,39.21
2019-03-19T07:34:48.197Z,39.78
2019-03-19T07:37:17.682Z,39.32
2019-03-19T07:39:47.298Z,38.76
2019-03-19T07:42:16.797Z,39.59
2019-03-19T07:44:46.256Z,39.98
2019-03-19T07:47:15.755Z,44.68
2019-03-19T07:49:45.350Z,43.92
2019-03-19T07:52:14.830Z,41.33
2019-03-19T07:54:44.307Z,42.68
2019-03-19T07:57:13.781Z,42.83
2019-03-19T07:59:43.315Z,41.52
2019-03-19T08:02:12.929Z,40.83
2019-03-19T08:04:42.458Z,44.20
2019-03-19T08:07:12.105Z,45.11
2019-03-19T08:09:41.871Z,47.26
2019-03-19T08:12:11.702Z,47.21
2019-03-19T08:14:42.910Z,49.49
2019-03-19T08:17:14.152Z,49.92
2019-03-19T08:19:43.619Z,46.03
2019-03-19T08:22:14.176Z,45.90
2019-03-19T08:24:43.858Z,43.73
2019-03-19T08:27:13.365Z,45.92
2019-03-19T08:29:42.829Z,42.56
2019-03-19T08:32:12.445Z,42.66
2019-03-19T08:34:41.715Z,42.71
2019-03-19T08:37:11.623Z,42.30
2019-03-19T08:39:41.213Z,41.86
2019-03-19T08:42:11.095Z,46.52
2019-03-19T08:44:40.650Z,45.05
2019-03-19T08:47:10.458Z,46.41
2019-03-19T08:49:40.036Z,46.69
2019-03-19T08:52:09.964Z,48.47
2019-03-19T08:54:39.594Z,46.22
2019-03-19T08:57:09.404Z,46.70
2019-03-19T08:59:38.830Z,46.46
2019-03-19T09:02:08.747Z,50.46
2019-03-19T09:04:38.197Z,47.27
2019-03-19T09:07:07.655Z,47.07
2019-03-19T09:09:37.145Z,47.56
2019-03-19T09:12:06.660Z,46.52
2019-03-19T09:14:36.239Z,50.01
2019-03-19T09:17:05.707Z,50.20
2019-03-19T09:19:35.309Z,52.25
2019-03-19T09:22:05.495Z,53.38
2019-03-19T09:24:35.046Z,53.94
2019-03-19T09:27:04.582Z,53.92
2019-03-19T09:29:34.145Z,56.47
2019-03-19T09:32:03.664Z,56.34
2019-03-19T09:34:33.001Z,55.00
2019-03-19T09:37:02.456Z,54.33
2019-03-19T09:39:32.111Z,55.15
2019-03-19T09:42:02.486Z,55.45
2019-03-19T09:44:32.039Z,53.75
2019-03-19T09:47:01.489Z,53.47
2019-03-19T09:49:30.875Z,52.72
2019-03-19T09:52:00.413Z,51.81
2019-03-19T09:54:32.155Z,52.43
2019-03-19T09:57:01.198Z,53.62
2019-03-19T09:59:51.524Z,53.29
2019-03-19T10:02:21.116Z,52.04
2019-03-19T10:04:50.834Z,51.67
2019-03-19T10:07:20.524Z,51.89
2019-03-19T10:09:50.136Z,50.28
2019-03-19T10:12:19.677Z,51.71
2019-03-19T10:14:49.042Z,50.44
2019-03-19T10:17:18.577Z,48.28
2019-03-19T10:19:48.061Z,47.65
2019-03-19T10:22:17.515Z,47.65
2019-03-19T10:24:47.055Z,47.68
2019-03-19T10:27:16.683Z,47.41
2019-03-19T10:33:01.310Z,45.85
2019-03-19T10:38:45.995Z,45.66
2019-03-19T10:41:15.521Z,45.14
2019-03-19T10:43:45.029Z,44.69
2019-03-19T10:46:14.993Z,43.04
2019-03-19T10:48:45.010Z,43.43
2019-03-19T10:51:14.658Z,42.18
2019-03-19T10:53:44.206Z,40.81
2019-03-19T10:56:13.733Z,39.07
2019-03-19T10:58:43.199Z,40.51
2019-03-19T11:01:14.342Z,39.12
2019-03-19T11:03:44.349Z,40.34
2019-03-19T11:06:14.936Z,41.32
2019-03-19T11:08:45.352Z,43.08
2019-03-19T11:11:15.956Z,40.90
2019-03-19T11:13:46.114Z,40.20
2019-03-19T11:16:15.571Z,39.91
2019-03-19T11:18:46.061Z,41.07
2019-03-19T11:21:16.369Z,40.66
2019-03-19T11:23:46.528Z,40.90
2019-03-19T11:26:15.979Z,41.76
2019-03-19T11:28:45.439Z,42.06
2019-03-19T11:31:15.256Z,41.57
2019-03-19T11:33:44.729Z,41.94
2019-03-19T11:36:14.213Z,41.52
2019-03-19T11:38:45.471Z,42.22
2019-03-19T11:41:17.357Z,41.95
2019-03-19T11:43:48.544Z,41.23
2019-03-19T11:46:17.975Z,42.17
2019-03-19T11:48:47.225Z,42.03
2019-03-19T11:51:18.244Z,41.67
2019-03-19T11:53:47.868Z,41.65
2019-03-19T11:56:17.478Z,41.95
2019-03-19T11:58:47.033Z,41.31
2019-03-19T12:01:16.614Z,41.67
2019-03-19T12:03:46.046Z,40.12
2019-03-19T12:06:15.538Z,39.57
2019-03-19T12:08:45.105Z,39.89
2019-03-19T12:11:14.588Z,40.07
2019-03-19T12:13:44.147Z,40.69
2019-03-19T12:16:13.603Z,39.38
2019-03-19T12:18:43.253Z,38.24
2019-03-19T12:21:12.820Z,39.14
2019-03-19T12:26:57.343Z,37.03
2019-03-19T12:29:26.846Z,36.27
2019-03-19T12:31:56.378Z,35.90
2019-03-19T12:34:25.954Z,35.27
2019-03-19T12:36:55.419Z,35.76
2019-03-19T12:39:24.929Z,34.80
2019-03-19T12:41:54.565Z,35.22
2019-03-19T12:44:24.105Z,36.37
2019-03-19T12:46:53.607Z,37.41
2019-03-19T12:49:23.078Z,36.06
2019-03-19T12:51:52.583Z,36.76
2019-03-19T12:54:22.193Z,36.41
2019-03-19T12:56:52.008Z,36.55
2019-03-19T12:59:21.478Z,37.35
2019-03-19T13:01:50.893Z,38.64
2019-03-19T13:04:20.558Z,39.94
2019-03-19T13:06:50.150Z,38.55
2019-03-19T13:09:19.699Z,38.73
2019-03-19T13:11:49.173Z,38.95
2019-03-19T13:14:18.707Z,37.99
2019-03-19T13:16:49.138Z,38.19
2019-03-19T13:19:18.669Z,38.13
2019-03-19T13:21:48.153Z,37.73
2019-03-19T13:24:57.665Z,37.45
2019-03-19T13:27:27.164Z,37.91
2019-03-19T13:29:56.718Z,38.07
2019-03-19T13:32:28.233Z,39.33
2019-03-19T13:34:57.220Z,38.91
2019-03-19T13:37:26.706Z,37.99
2019-03-19T13:39:56.197Z,38.83
2019-03-19T13:42:25.689Z,39.17
2019-03-19T13:44:55.317Z,37.92
2019-03-19T13:47:24.920Z,38.06
2019-03-19T13:49:56.041Z,38.33
2019-03-19T13:52:25.589Z,39.13
2019-03-19T13:54:55.122Z,38.48
2019-03-19T13:57:24.611Z,38.47
2019-03-19T13:59:54.035Z,38.30
2019-03-19T14:02:23.511Z,37.91
2019-03-19T14:04:52.874Z,37.96
2019-03-19T14:07:22.610Z,37.72
2019-03-19T14:09:52.250Z,37.28
2019-03-19T14:12:21.728Z,37.42
2019-03-19T14:14:51.331Z,37.61
2019-03-19T14:17:20.912Z,38.34
2019-03-19T14:19:51.405Z,38.41
2019-03-19T14:22:21.120Z,38.37
2019-03-19T14:24:50.757Z,38.85
2019-03-19T14:27:20.420Z,38.47
2019-03-19T14:29:51.732Z,38.61
2019-03-19T14:32:21.393Z,38.37
2019-03-19T14:34:50.927Z,38.48
2019-03-19T14:37:20.590Z,38.86
2019-03-19T14:39:50.180Z,39.49
2019-03-19T14:42:19.849Z,39.71
2019-03-19T14:44:49.440Z,40.35
2019-03-19T14:47:19.062Z,40.11
2019-03-19T14:49:49.919Z,40.73
2019-03-19T14:52:19.668Z,40.21
2019-03-19T14:54:49.212Z,40.61
2019-03-19T14:57:18.717Z,40.75
2019-03-19T14:59:48.426Z,40.13
2019-03-19T15:02:17.781Z,39.54
2019-03-19T15:04:47.265Z,39.45
2019-03-19T15:07:16.827Z,39.50
2019-03-19T15:09:46.281Z,39.17
2019-03-19T15:12:15.832Z,38.64
2019-03-19T15:14:45.402Z,38.12
2019-03-19T15:17:14.931Z,38.65
2019-03-19T15:19:44.492Z,38.62
2019-03-19T15:22:14.075Z,39.18
2019-03-19T15:24:45.380Z,39.47
2019-03-19T15:27:14.894Z,39.79
2019-03-19T15:29:45.417Z,39.74
2019-03-19T15:32:14.941Z,39.72
2019-03-19T15:34:44.405Z,39.92
2019-03-19T15:37:13.851Z,40.34
2019-03-19T15:39:43.345Z,39.69
2019-03-19T15:42:12.797Z,39.45
2019-03-19T15:44:42.225Z,39.37
2019-03-19T15:47:11.957Z,39.26
2019-03-19T15:49:41.470Z,39.91
2019-03-19T15:52:11.074Z,39.83
2019-03-19T15:54:40.679Z,39.65
2019-03-19T15:57:11.716Z,39.64
2019-03-19T15:59:41.361Z,39.33
2019-03-19T16:02:11.328Z,39.26
2019-03-19T16:04:40.976Z,39.64
2019-03-19T16:07:10.852Z,40.21
2019-03-19T16:09:42.241Z,39.43
2019-03-19T16:12:11.836Z,40.33
2019-03-19T16:14:42.381Z,40.63
2019-03-19T16:17:12.051Z,40.11
2019-03-19T16:19:41.772Z,39.84
2019-03-19T16:22:11.423Z,39.56
2019-03-19T16:24:40.885Z,39.11
2019-03-19T16:27:10.623Z,38.77
2019-03-19T16:29:40.238Z,39.09
2019-03-19T16:32:09.966Z,39.22
2019-03-19T16:34:39.590Z,39.14
2019-03-19T16:37:09.421Z,39.21
2019-03-19T16:39:38.872Z,39.28
2019-03-19T16:42:08.488Z,39.02
2019-03-19T16:44:37.923Z,38.31
2019-03-19T16:47:07.545Z,38.07
2019-03-19T16:49:37.155Z,38.60
2019-03-19T16:52:06.638Z,39.27
2019-03-19T16:54:36.408Z,39.37
2019-03-19T16:57:06.207Z,38.32
2019-03-19T16:59:35.721Z,38.10
2019-03-19T17:02:05.350Z,38.25
2019-03-19T17:04:34.845Z,38.95
2019-03-19T17:07:04.350Z,41.09
2019-03-19T17:09:33.808Z,41.80
2019-03-19T17:12:05.866Z,41.62
2019-03-19T17:14:37.837Z,41.57
2019-03-19T17:17:09.955Z,41.94
2019-03-19T17:19:41.932Z,42.77
2019-03-19T17:22:13.925Z,42.82
2019-03-19T17:24:45.903Z,43.72
2019-03-19T17:27:17.871Z,44.28
2019-03-19T17:29:49.834Z,43.78
2019-03-19T17:32:21.832Z,43.53
2019-03-19T17:34:53.807Z,44.79
2019-03-19T17:37:25.802Z,44.79
2019-03-19T17:39:57.840Z,44.60
2019-03-19T17:42:29.860Z,44.99
2019-03-19T17:45:01.804Z,45.34
2019-03-19T17:47:33.824Z,45.95
2019-03-19T17:50:05.217Z,45.83
2019-03-19T17:52:34.739Z,45.20
2019-03-19T17:55:06.083Z,45.70
2019-03-19T17:57:35.781Z,46.20
2019-03-19T18:00:08.953Z,46.00
2019-03-19T18:02:38.413Z,46.35
2019-03-19T18:05:09.719Z,47.66
2019-03-19T18:07:39.275Z,47.55
2019-03-19T18:10:11.788Z,47.78
2019-03-19T18:12:41.627Z,46.94
2019-03-19T18:15:13.887Z,47.11
2019-03-19T18:17:43.468Z,47.12
2019-03-19T18:20:15.653Z,47.35
2019-03-19T18:22:45.311Z,46.86
2019-03-19T18:25:17.878Z,46.90
2019-03-19T18:27:47.506Z,46.38
2019-03-19T18:30:19.486Z,46.62
2019-03-19T18:32:49.058Z,46.71
2019-03-19T18:35:18.731Z,47.35
2019-03-19T18:37:48.269Z,47.36
2019-03-19T18:40:18.713Z,47.10
2019-03-19T18:42:48.301Z,47.57
2019-03-19T18:45:20.019Z,48.17
2019-03-19T18:47:49.715Z,48.80
2019-03-19T18:50:20.268Z,48.12
2019-03-19T18:52:49.882Z,48.55
2019-03-19T18:55:19.425Z,48.40
2019-03-19T18:57:48.957Z,48.80
2019-03-19T19:00:20.101Z,49.18
2019-03-19T19:02:51.042Z,49.68
2019-03-19T19:05:22.862Z,50.12
2019-03-19T19:07:52.431Z,48.86
2019-03-19T19:10:21.913Z,48.54
2019-03-19T19:12:51.506Z,48.86
2019-03-19T19:15:22.112Z,49.36
2019-03-19T19:17:51.694Z,49.54
2019-03-19T19:20:21.409Z,49.93
2019-03-19T19:22:51.985Z,50.65
2019-03-19T19:25:23.592Z,51.31
2019-03-19T19:27:53.162Z,51.60
2019-03-19T19:30:23.867Z,52.03
2019-03-19T19:33:01.572Z,52.54
2019-03-19T19:35:26.193Z,52.86
2019-03-19T19:37:55.654Z,53.22
2019-03-19T19:40:25.135Z,53.19
2019-03-19T19:42:54.685Z,53.58
2019-03-19T19:45:24.240Z,53.72
2019-03-19T19:47:53.859Z,54.13
2019-03-19T19:50:23.941Z,54.16
2019-03-19T19:52:53.407Z,54.38
2019-03-19T19:55:22.957Z,54.26
2019-03-19T19:57:52.537Z,54.32
2019-03-19T20:00:23.149Z,54.49
2019-03-19T20:02:52.741Z,54.88
2019-03-19T20:05:22.336Z,55.04
2019-03-19T20:07:51.807Z,55.25
2019-03-19T20:10:23.616Z,55.46
2019-03-19T20:12:53.104Z,55.58
2019-03-19T20:15:23.378Z,55.58
2019-03-19T20:17:52.853Z,55.57
2019-03-19T20:20:24.760Z,55.15
2019-03-19T20:22:54.289Z,54.15
2019-03-19T20:25:23.781Z,53.59
2019-03-19T20:27:52.978Z,54.00
2019-03-19T20:30:24.516Z,54.87
2019-03-19T20:32:54.023Z,55.80
2019-03-19T20:35:23.677Z,55.62
2019-03-19T20:37:55.207Z,55.70
2019-03-19T20:40:24.688Z,55.95
2019-03-19T20:42:54.208Z,55.90
2019-03-19T20:45:25.311Z,56.21
2019-03-19T20:47:55.807Z,56.51
2019-03-19T20:50:28.081Z,56.70
2019-03-19T20:52:57.651Z,56.57
2019-03-19T20:55:27.063Z,56.62
2019-03-19T20:57:56.536Z,56.69
2019-03-19T21:00:25.917Z,56.79
2019-03-19T21:02:55.605Z,57.32
2019-03-19T21:05:25.177Z,57.22
2019-03-19T21:07:54.918Z,57.03
2019-03-19T21:10:25.173Z,56.70
2019-03-19T21:12:54.807Z,56.52
2019-03-19T21:15:30.461Z,56.44
2019-03-19T21:17:59.820Z,56.96
2019-03-19T21:20:28.997Z,57.38
2019-03-19T21:22:58.287Z,58.38
2019-03-19T21:25:27.897Z,58.76
2019-03-19T21:27:57.381Z,58.24
2019-03-19T21:30:27.062Z,58.38
2019-03-19T21:32:56.580Z,58.12
2019-03-19T21:35:26.077Z,58.10
2019-03-19T21:37:55.842Z,58.14
2019-03-19T21:40:25.974Z,58.14
2019-03-19T21:42:55.624Z,58.75
2019-03-19T21:45:25.327Z,57.93
2019-03-19T21:47:54.918Z,57.37
2019-03-19T21:50:25.494Z,56.96
2019-03-19T21:52:54.978Z,55.92
2019-03-19T21:55:24.578Z,56.65
2019-03-19T21:57:53.861Z,57.17
2019-03-19T22:00:25.646Z,58.74
2019-03-19T22:02:55.260Z,58.27
2019-03-19T22:05:24.855Z,57.62
2019-03-19T22:07:54.139Z,58.48
2019-03-19T22:10:23.592Z,59.16
2019-03-19T22:12:53.157Z,59.51
2019-03-19T22:15:24.813Z,59.91
2019-03-19T22:17:54.336Z,59.61
2019-03-19T22:20:25.757Z,60.07
2019-03-19T22:22:55.049Z,60.03
2019-03-19T22:25:24.578Z,59.88
2019-03-19T22:27:54.282Z,60.04
2019-03-19T22:30:23.920Z,59.99
2019-03-19T22:32:53.529Z,60.40
2019-03-19T22:35:25.062Z,61.33
2019-03-19T22:37:54.565Z,60.81
2019-03-19T22:40:24.036Z,60.87
2019-03-19T22:42:53.490Z,61.30
2019-03-19T22:45:23.039Z,60.89
2019-03-19T22:47:52.573Z,60.78
2019-03-19T22:50:22.219Z,61.15
2019-03-19T22:52:51.819Z,61.50
2019-03-19T22:55:29.066Z,61.39
2019-03-19T22:57:53.168Z,61.88
2019-03-19T23:00:26.002Z,62.29
2019-03-19T23:02:55.505Z,62.00
2019-03-19T23:05:25.144Z,62.19
2019-03-19T23:07:54.665Z,62.46
2019-03-19T23:10:24.237Z,62.20
2019-03-19T23:12:53.859Z,62.39
2019-03-19T23:15:23.488Z,63.00
2019-03-19T23:17:53.116Z,63.16
2019-03-19T23:20:22.639Z,63.47
2019-03-19T23:22:52.263Z,63.39
2019-03-19T23:25:21.853Z,63.67
2019-03-19T23:27:51.575Z,63.96
2019-03-19T23:30:22.912Z,64.08
2019-03-19T23:32:52.533Z,65.45
2019-03-19T23:35:22.124Z,65.57
2019-03-19T23:37:51.602Z,65.56
2019-03-19T23:40:21.805Z,65.71
2019-03-19T23:42:51.525Z,65.53
2019-03-19T23:45:20.914Z,65.20
2019-03-19T23:47:50.600Z,65.53
2019-03-19T23:50:21.114Z,65.34
2019-03-19T23:52:50.763Z,65.66
2019-03-19T23:55:20.344Z,65.87
2019-03-19T23:57:49.967Z,67.10
